createdAt,value
2019-02-18T00:00:42.829Z,10.53
2019-02-18T00:05:48.104Z,10.15
2019-02-18T00:10:53.367Z,9.63
2019-02-18T00:15:59.440Z,10.18
2019-02-18T00:21:05.120Z,10.80
2019-02-18T00:26:10.720Z,10.45
2019-02-18T00:31:16.364Z,10.82
2019-02-18T00:36:21.619Z,10.37
2019-02-18T00:41:27.121Z,10.67
2019-02-18T00:46:32.313Z,10.77
2019-02-18T00:51:37.823Z,10.00
2019-02-18T00:56:43.175Z,10.13
2019-02-18T01:01:48.372Z,10.13
2019-02-18T01:06:53.638Z,9.35
2019-02-18T01:11:59.753Z,9.90
2019-02-18T01:17:05.058Z,9.58
2019-02-18T01:22:10.259Z,10.03
2019-02-18T01:27:15.424Z,9.90
2019-02-18T01:32:20.687Z,9.68
2019-02-18T01:37:26.207Z,10.17
2019-02-18T01:42:32.018Z,9.45
2019-02-18T01:47:37.965Z,9.90
2019-02-18T01:52:43.142Z,10.30
2019-02-18T01:57:48.860Z,10.10
2019-02-18T02:02:55.682Z,9.73
2019-02-18T02:08:00.952Z,10.50
2019-02-18T02:13:41.515Z,9.57
2019-02-18T02:18:46.693Z,9.90
2019-02-18T02:23:52.312Z,9.83
2019-02-18T02:28:57.570Z,9.93
2019-02-18T02:34:02.829Z,9.33
2019-02-18T02:39:08.424Z,9.73
2019-02-18T02:44:13.876Z,8.57
2019-02-18T02:49:20.110Z,9.00
2019-02-18T02:54:26.050Z,9.00
2019-02-18T02:59:31.228Z,8.67
2019-02-18T03:04:36.486Z,8.68
2019-02-18T03:09:41.943Z,8.90
2019-02-18T03:14:47.616Z,8.88
2019-02-18T03:19:52.792Z,8.53
2019-02-18T03:25:18.453Z,8.68
2019-02-18T03:30:33.964Z,8.47
2019-02-18T03:35:39.984Z,8.80
2019-02-18T03:40:45.505Z,8.73
2019-02-18T03:45:51.078Z,8.33
2019-02-18T03:50:56.411Z,8.60
2019-02-18T03:56:02.432Z,8.50
2019-02-18T04:01:07.595Z,8.23
2019-02-18T04:06:12.774Z,8.83
2019-02-18T04:11:18.675Z,8.20
2019-02-18T04:16:24.159Z,8.07
2019-02-18T04:21:29.324Z,8.53
2019-02-18T04:26:34.756Z,7.87
2019-02-18T04:31:40.273Z,8.10
2019-02-18T04:36:45.335Z,9.07
2019-02-18T04:41:50.421Z,8.33
2019-02-18T04:46:56.258Z,8.13
2019-02-18T04:52:01.316Z,8.90
2019-02-18T04:57:06.461Z,8.73
2019-02-18T05:02:11.873Z,8.57
2019-02-18T05:07:16.946Z,8.50
2019-02-18T05:12:22.086Z,9.20
2019-02-18T05:17:27.576Z,8.77
2019-02-18T05:22:33.094Z,9.33
2019-02-18T05:27:38.181Z,8.80
2019-02-18T05:32:43.600Z,9.23
2019-02-18T05:37:48.684Z,8.80
2019-02-18T05:42:54.695Z,9.27
2019-02-18T05:48:00.285Z,9.07
2019-02-18T05:53:05.521Z,9.13
2019-02-18T05:58:10.507Z,8.87
2019-02-18T06:03:16.415Z,9.73
2019-02-18T06:08:21.478Z,9.10
2019-02-18T06:13:26.812Z,8.53
2019-02-18T06:18:32.515Z,9.47
2019-02-18T06:23:37.938Z,9.33
2019-02-18T06:28:43.723Z,8.83
2019-02-18T06:33:49.208Z,8.77
2019-02-18T06:38:54.307Z,8.40
2019-02-18T06:44:00.038Z,9.10
2019-02-18T06:49:25.829Z,9.23
2019-02-18T06:54:31.254Z,9.60
2019-02-18T06:59:55.365Z,8.93
2019-02-18T07:05:23.956Z,8.70
2019-02-18T07:10:43.138Z,9.03
2019-02-18T07:15:48.569Z,8.73
2019-02-18T07:20:54.305Z,9.13
2019-02-18T07:25:59.298Z,9.17
2019-02-18T07:31:04.397Z,9.53
2019-02-18T07:36:09.891Z,8.90
2019-02-18T07:41:15.323Z,9.03
2019-02-18T07:46:21.036Z,9.10
2019-02-18T07:51:26.591Z,9.10
2019-02-18T07:56:31.741Z,8.33
2019-02-18T08:01:36.806Z,8.57
2019-02-18T08:06:43.157Z,8.40
2019-02-18T08:11:48.645Z,8.40
2019-02-18T08:16:54.133Z,7.93
2019-02-18T08:21:59.619Z,8.60
2019-02-18T08:27:04.866Z,8.33
2019-02-18T08:32:10.966Z,8.67
2019-02-18T08:37:16.262Z,8.97
2019-02-18T08:42:21.405Z,8.63
2019-02-18T08:47:26.437Z,8.37
2019-02-18T08:52:31.574Z,8.33
2019-02-18T08:57:37.141Z,8.35
2019-02-18T09:02:42.489Z,9.10
2019-02-18T09:07:47.657Z,8.68
2019-02-18T09:12:53.078Z,8.40
2019-02-18T09:17:58.307Z,7.90
2019-02-18T09:23:15.242Z,8.23
2019-02-18T09:28:20.714Z,7.78
2019-02-18T09:33:26.230Z,8.65
2019-02-18T09:38:32.215Z,8.40
2019-02-18T09:43:37.654Z,9.93
2019-02-18T09:48:43.800Z,12.37
2019-02-18T09:53:49.327Z,11.93
2019-02-18T09:58:54.558Z,12.63
2019-02-18T10:04:00.167Z,9.73
2019-02-18T10:09:07.141Z,7.87
2019-02-18T10:14:12.818Z,7.90
2019-02-18T10:19:18.041Z,7.83
2019-02-18T10:24:23.105Z,7.50
2019-02-18T10:29:28.576Z,7.75
2019-02-18T10:34:33.738Z,7.72
2019-02-18T10:39:38.901Z,7.45
2019-02-18T10:44:44.388Z,7.50
2019-02-18T10:49:49.683Z,8.10
2019-02-18T10:54:54.935Z,7.58
2019-02-18T11:00:00.407Z,7.67
2019-02-18T11:05:07.591Z,7.33
2019-02-18T11:10:13.981Z,6.90
2019-02-18T11:15:19.337Z,7.08
2019-02-18T11:20:24.676Z,8.33
2019-02-18T11:25:30.189Z,7.28
2019-02-18T11:30:35.808Z,7.40
2019-02-18T11:35:41.777Z,6.90
2019-02-18T11:40:47.052Z,7.10
2019-02-18T11:45:52.212Z,6.95
2019-02-18T11:50:57.374Z,7.08
2019-02-18T11:56:02.591Z,6.87
2019-02-18T12:01:08.824Z,6.65
2019-02-18T12:06:14.067Z,6.37
2019-02-18T12:11:19.442Z,6.67
2019-02-18T12:16:25.331Z,6.40
2019-02-18T12:21:30.767Z,6.95
2019-02-18T12:26:35.920Z,5.60
2019-02-18T12:31:40.994Z,4.70
2019-02-18T12:36:46.522Z,5.37
2019-02-18T12:41:53.106Z,5.20
2019-02-18T12:46:58.246Z,5.40
2019-02-18T12:52:04.130Z,5.25
2019-02-18T12:57:09.833Z,5.30
2019-02-18T13:02:14.988Z,5.17
2019-02-18T13:07:21.040Z,6.10
2019-02-18T13:12:27.481Z,6.17
2019-02-18T13:17:32.548Z,6.22
2019-02-18T13:22:38.416Z,6.20
2019-02-18T13:27:43.655Z,6.08
2019-02-18T13:32:49.263Z,5.72
2019-02-18T13:37:54.674Z,5.90
2019-02-18T13:43:00.138Z,5.17
2019-02-18T13:48:05.363Z,5.55
2019-02-18T13:53:10.600Z,5.95
2019-02-18T13:58:15.828Z,6.17
2019-02-18T14:03:20.970Z,6.47
2019-02-18T14:08:26.203Z,5.60
2019-02-18T14:13:31.707Z,6.05
2019-02-18T14:18:37.220Z,5.62
2019-02-18T14:23:43.439Z,6.15
2019-02-18T14:28:48.582Z,5.72
2019-02-18T14:33:55.665Z,5.85
2019-02-18T14:39:00.847Z,6.00
2019-02-18T14:44:08.101Z,5.80
2019-02-18T14:49:13.733Z,5.42
2019-02-18T14:54:19.458Z,5.92
2019-02-18T14:59:24.686Z,4.90
2019-02-18T15:04:29.820Z,5.00
2019-02-18T15:09:35.061Z,5.03
2019-02-18T15:14:40.215Z,5.00
2019-02-18T15:19:45.366Z,5.10
2019-02-18T15:24:50.521Z,4.58
2019-02-18T15:29:56.129Z,4.67
2019-02-18T15:35:03.105Z,4.50
2019-02-18T15:40:10.032Z,4.55
2019-02-18T15:45:15.877Z,4.37
2019-02-18T15:50:21.423Z,4.65
2019-02-18T15:55:28.612Z,5.08
2019-02-18T16:00:34.504Z,4.12
2019-02-18T16:05:40.691Z,3.85
2019-02-18T16:10:45.843Z,3.35
2019-02-18T16:15:51.327Z,3.47
2019-02-18T16:20:56.696Z,3.33
2019-02-18T16:26:02.805Z,4.17
2019-02-18T16:31:08.497Z,4.03
2019-02-18T16:36:13.745Z,3.90
2019-02-18T16:41:18.977Z,3.95
2019-02-18T16:46:24.243Z,4.17
2019-02-18T16:51:30.231Z,5.10
2019-02-18T16:56:35.447Z,5.03
2019-02-18T17:01:41.015Z,4.55
2019-02-18T17:06:46.591Z,4.85
2019-02-18T17:11:51.727Z,4.95
2019-02-18T17:16:56.965Z,5.03
2019-02-18T17:22:02.512Z,5.10
2019-02-18T17:27:08.036Z,4.97
2019-02-18T17:32:14.602Z,5.33
2019-02-18T17:37:20.389Z,5.08
2019-02-18T17:42:26.001Z,5.47
2019-02-18T17:47:31.204Z,5.30
2019-02-18T17:52:36.770Z,5.83
2019-02-18T17:57:41.904Z,6.33
2019-02-18T18:02:47.086Z,5.97
2019-02-18T18:07:52.336Z,6.30
2019-02-18T18:12:58.744Z,6.12
2019-02-18T18:18:04.035Z,5.80
2019-02-18T18:23:09.277Z,5.55
2019-02-18T18:28:14.562Z,5.67
2019-02-18T18:33:19.702Z,5.45
2019-02-18T18:38:24.952Z,5.53
2019-02-18T18:43:33.848Z,6.70
2019-02-18T18:48:37.209Z,6.40
2019-02-18T18:53:42.821Z,6.22
2019-02-18T18:58:48.162Z,6.80
2019-02-18T19:03:54.543Z,6.78
2019-02-18T19:09:01.462Z,6.45
2019-02-18T19:14:07.704Z,7.10
2019-02-18T19:19:12.960Z,7.62
2019-02-18T19:24:18.123Z,11.65
2019-02-18T19:29:24.181Z,7.62
2019-02-18T19:34:29.608Z,6.67
2019-02-18T19:39:34.781Z,7.28
2019-02-18T19:44:39.994Z,6.75
2019-02-18T19:49:46.001Z,6.40
2019-02-18T19:54:51.639Z,6.85
2019-02-18T19:59:56.858Z,6.78
2019-02-18T20:05:02.085Z,6.80
2019-02-18T20:10:08.143Z,6.83
2019-02-18T20:15:13.486Z,7.10
2019-02-18T20:20:18.958Z,6.87
2019-02-18T20:25:24.417Z,6.87
2019-02-18T20:30:29.950Z,7.30
2019-02-18T20:35:35.754Z,6.92
2019-02-18T20:40:41.505Z,6.90
2019-02-18T20:45:47.394Z,7.20
2019-02-18T20:50:52.685Z,7.08
2019-02-18T20:55:58.592Z,7.15
2019-02-18T21:01:03.907Z,7.30
2019-02-18T21:06:09.451Z,7.23
2019-02-18T21:11:17.506Z,7.55
2019-02-18T21:16:22.828Z,7.53
2019-02-18T21:21:28.185Z,7.33
2019-02-18T21:26:36.653Z,7.92
2019-02-18T21:31:41.826Z,7.65
2019-02-18T21:36:48.356Z,7.50
2019-02-18T21:41:54.388Z,7.37
2019-02-18T21:46:59.680Z,7.37
2019-02-18T21:52:06.273Z,7.75
2019-02-18T21:57:12.046Z,7.70
2019-02-18T22:02:19.141Z,8.20
2019-02-18T22:07:24.563Z,8.80
2019-02-18T22:12:30.647Z,8.88
2019-02-18T22:17:35.805Z,8.78
2019-02-18T22:22:41.608Z,8.23
2019-02-18T22:27:46.833Z,9.00
2019-02-18T22:32:52.055Z,8.68
2019-02-18T22:37:57.328Z,8.83
2019-02-18T22:43:02.556Z,8.93
2019-02-18T22:48:08.123Z,9.15
2019-02-18T22:53:14.127Z,9.60
2019-02-18T22:58:19.486Z,10.05
2019-02-18T23:03:24.757Z,9.23
2019-02-18T23:08:30.358Z,9.08
2019-02-18T23:13:35.958Z,9.28
2019-02-18T23:18:41.432Z,9.27
2019-02-18T23:23:46.980Z,9.20
2019-02-18T23:28:52.401Z,9.13
2019-02-18T23:33:57.547Z,9.18
2019-02-18T23:39:04.079Z,9.60
2019-02-18T23:44:10.402Z,9.20
2019-02-18T23:49:15.554Z,9.45
2019-02-18T23:54:22.220Z,9.25
2019-02-18T23:59:27.509Z,9.50
